< < Back
Terminal Aerodrome Forecast


Current Version              Previous Versions:   1  2  3  4  5  6  7  8  9  

Terminal Aerodrome Forecast

609
FTUS44 KMOB 211100
TAFMOB
TAF
KMOB 211129Z 2112/2212 04004KT P6SM FEW030 FEW200
     FM212100 19006KT P6SM SCT040 SCT200=

Latest METAR

189
SAUS80 KWBC 220200 CCA
MTRMOB
METAR KMOB 220156Z 17004KT 10SM FEW100 SCT200 24/22 A3002 RMK AO2 SLP164
T02390217


USA.gov is the U.S. government's official web portal to all federal, state and local government web resources and services.